Antlers Park, Minnesota
Current Conditions -  °F | °C
As of 1:04 AM on Saturday 20 Dec 2014 (Local Time) from KLVN Reporting Station
Overcast Overcast  
Wind Chill: 22°   Ceiling: 1300
Heat Index: 28°   Visibility: 7mi
Dew Point: 25°   Wind: 6mph
Humidity: 86%   Direction: 160°SSE
Pressure: 30.16"   Gusts: NA
Location:  44.6349°N, 93.283°W
Report Text: KLVN 200704Z AUTO 16005KT 7SM OVC013 M02/M04 A3016 RMK AO2
Loading
Personal Weather Stations






























Interactive Weather Map New forecast layout! Learn more

10-Day Weather Forecast

Advertisements
Track Severe Weather on mobile